Terminal Aerodrome Forecast
Issued by NWS Upton, NY

Home | Current Version | Previous Version | Text Only | Print | Product List | Glossary On
Versions: 1 2 3 4 5 6 7 8 9 10 11 12 13 14 15 16 17 18 19 20 21 22 23 24 25 26 27 28 29 30 31 32 33 34
686
FTUS41 KOKX 260201 AAA
TAFEWR
TAF AMD
KEWR 260201Z 2602/2706 02008KT 1SM TSRA BR SCT006 OVC015CB
     FM260500 VRB05KT 2SM SHRA BR VCTS SCT006 OVC015CB
     FM260700 VRB05KT 2SM SHRA BR OVC004
     FM261000 30008KT 6SM -SHRA SCT007 BKN012
     FM261400 29012KT P6SM SCT015 BKN025
     FM261600 29014G24KT P6SM SCT025 BKN035
     FM270000 31009KT P6SM SCT050=

USA.gov is the U.S. government's official web portal to all federal, state and local government web resources and services.